Time;durP1;ratioP1;P1;durP2;ratioP2;P2;SDS_P1;SDS_P2;PMS_P1;PMS_P2;Temp;Humidity;BMP_temperature;BMP_pressure;BME280_temperature;BME280_humidity;BME280_pressure;Samples;Min_cycle;Max_cycle;Signal;HPM_P1;HPM_P2
2023/07/11 00:02:19;;;;;;;5.07;4.60;;;;;;;;;;5110859;28;20684;-79
2023/07/11 00:04:46;;;;;;;5.37;4.87;;;;;;;;;;5110883;28;20195;-79
2023/07/11 00:07:13;;;;;;;6.33;4.23;;;;;;;;;;5092790;28;20223;-79
2023/07/11 00:09:40;;;;;;;4.23;3.93;;;;;;;;;;5079555;28;20268;-79
2023/07/11 00:12:09;;;;;;;5.10;4.60;;;;;;;;;;5080815;28;20204;-79
2023/07/11 00:14:36;;;;;;;4.43;4.03;;;;;;;;;;5075197;28;20256;-79
2023/07/11 00:17:05;;;;;;;5.53;5.03;;;;;;;;;;5093261;28;20195;-79
2023/07/11 00:19:48;;;;;;;6.07;4.80;;;;;;;;;;5099488;28;20204;-79
2023/07/11 00:22:15;;;;;;;7.83;4.60;;;;;;;;;;5082994;28;20204;-79
2023/07/11 00:24:42;;;;;;;5.00;4.57;;;;;;;;;;5088872;28;20586;-79
2023/07/11 00:27:11;;;;;;;4.60;4.20;;;;;;;;;;5107630;28;20242;-79
2023/07/11 00:29:38;;;;;;;4.80;4.40;;;;;;;;;;5085908;28;20574;-79
2023/07/11 00:32:06;;;;;;;6.57;4.80;;;;;;;;;;5094042;28;20765;-79
2023/07/11 00:34:34;;;;;;;4.70;4.30;;;;;;;;;;5050004;28;20277;-79
2023/07/11 00:37:01;;;;;;;5.47;4.97;;;;;;;;;;5089656;28;20702;-79
2023/07/11 00:39:30;;;;;;;5.37;4.83;;;;;;;;;;5087250;28;20218;-79
2023/07/11 00:41:57;;;;;;;6.53;5.20;;;;;;;;;;5096868;28;20203;-79
2023/07/11 00:44:26;;;;;;;5.20;4.70;;;;;;;;;;5105665;28;20207;-79
2023/07/11 00:46:53;;;;;;;6.23;4.67;;;;;;;;;;5096323;28;20220;-81
2023/07/11 00:49:23;;;;;;;5.70;4.93;;;;;;;;;;5106585;28;20228;-79
2023/07/11 00:51:52;;;;;;;5.53;5.03;;;;;;;;;;5114104;28;20746;-79
2023/07/11 00:54:22;;;;;;;6.87;4.27;;;;;;;;;;5114472;28;20204;-79
2023/07/11 00:56:50;;;;;;;5.20;4.77;;;;;;;;;;5100982;28;20260;-79
2023/07/11 00:59:18;;;;;;;5.80;5.30;;;;;;;;;;5096448;28;20286;-80
2023/07/11 01:01:48;;;;;;;5.10;4.70;;;;;;;;;;5094249;28;20211;-79
2023/07/11 01:04:19;;;;;;;5.17;4.73;;;;;;;;;;5090678;28;20206;-79
2023/07/11 01:06:46;;;;;;;5.20;4.40;;;;;;;;;;5097321;28;20252;-79
2023/07/11 01:09:13;;;;;;;5.27;4.77;;;;;;;;;;5099959;28;20207;-79
2023/07/11 01:11:53;;;;;;;5.43;5.03;;;;;;;;;;5070869;28;20204;-79
2023/07/11 01:14:20;;;;;;;6.20;4.53;;;;;;;;;;5097638;28;20227;-79
2023/07/11 01:16:48;;;;;;;5.73;4.47;;;;;;;;;;5085610;28;20224;-79
2023/07/11 01:19:15;;;;;;;7.47;4.73;;;;;;;;;;5097991;28;20712;-78
2023/07/11 01:21:44;;;;;;;4.97;4.57;;;;;;;;;;5095886;28;20629;-79
2023/07/11 01:24:12;;;;;;;6.20;4.87;;;;;;;;;;5082542;28;20196;-79
2023/07/11 01:26:39;;;;;;;6.67;4.53;;;;;;;;;;5095775;28;20659;-79
2023/07/11 01:29:09;;;;;;;6.87;5.43;;;;;;;;;;5098646;28;20200;-79
2023/07/11 01:31:36;;;;;;;5.17;4.60;;;;;;;;;;5112813;28;20203;-79
2023/07/11 01:34:04;;;;;;;8.37;4.30;;;;;;;;;;5113581;28;20199;-79
2023/07/11 01:36:31;;;;;;;5.70;5.17;;;;;;;;;;5101461;28;20558;-79
2023/07/11 01:39:00;;;;;;;11.33;4.90;;;;;;;;;;5098753;28;20628;-79
2023/07/11 01:41:28;;;;;;;5.73;4.90;;;;;;;;;;5095659;28;20257;-79
2023/07/11 01:43:55;;;;;;;5.50;5.03;;;;;;;;;;5075375;28;20212;-79
2023/07/11 01:46:22;;;;;;;5.87;5.27;;;;;;;;;;5106263;28;20227;-79
2023/07/11 01:48:49;;;;;;;6.00;4.93;;;;;;;;;;5088332;28;20643;-79
2023/07/11 01:51:17;;;;;;;5.57;4.67;;;;;;;;;;5075463;28;20201;-80
2023/07/11 01:53:44;;;;;;;4.97;4.57;;;;;;;;;;5099910;28;20200;-79
2023/07/11 01:56:13;;;;;;;7.03;5.10;;;;;;;;;;5081582;28;20670;-79
2023/07/11 01:58:40;;;;;;;6.90;4.67;;;;;;;;;;5087869;28;20571;-79
2023/07/11 02:01:07;;;;;;;6.57;5.27;;;;;;;;;;5084312;28;20218;-79
2023/07/11 02:03:34;;;;;;;6.07;5.40;;;;;;;;;;5104682;28;20754;-79
2023/07/11 02:06:01;;;;;;;7.60;5.60;;;;;;;;;;5112841;28;20223;-78
2023/07/11 02:08:28;;;;;;;5.53;5.03;;;;;;;;;;5074650;28;20208;-80
2023/07/11 02:10:55;;;;;;;4.80;4.30;;;;;;;;;;5077211;28;20203;-79
2023/07/11 02:13:24;;;;;;;10.10;5.43;;;;;;;;;;5082042;28;20207;-79
2023/07/11 02:15:51;;;;;;;5.80;4.47;;;;;;;;;;5074577;28;20208;-79
2023/07/11 02:18:18;;;;;;;5.93;4.80;;;;;;;;;;5105169;28;20701;-80
2023/07/11 02:20:46;;;;;;;6.73;4.87;;;;;;;;;;5074812;28;20475;-79
2023/07/11 02:23:14;;;;;;;8.80;5.07;;;;;;;;;;5074815;28;20204;-79
2023/07/11 02:25:41;;;;;;;5.27;4.47;;;;;;;;;;5087313;28;20208;-79
2023/07/11 02:28:08;;;;;;;4.90;4.50;;;;;;;;;;5088411;28;20196;-79
2023/07/11 02:30:37;;;;;;;5.97;5.37;;;;;;;;;;5098757;28;20195;-79
2023/07/11 02:33:04;;;;;;;5.67;4.40;;;;;;;;;;5066963;28;20211;-79
2023/07/11 02:35:32;;;;;;;9.50;4.90;;;;;;;;;;5109387;28;20207;-79
2023/07/11 02:38:00;;;;;;;7.07;5.03;;;;;;;;;;5094524;28;20199;-80
2023/07/11 02:40:27;;;;;;;5.77;5.17;;;;;;;;;;5078108;28;20203;-79
2023/07/11 02:42:54;;;;;;;7.17;4.83;;;;;;;;;;5112198;28;20204;-79
2023/07/11 02:45:21;;;;;;;7.13;4.60;;;;;;;;;;5101007;28;20210;-79
2023/07/11 02:47:49;;;;;;;6.33;4.87;;;;;;;;;;5079046;28;20227;-79
2023/07/11 02:50:17;;;;;;;6.30;5.03;;;;;;;;;;5082639;28;20280;-80
2023/07/11 02:52:44;;;;;;;5.87;5.07;;;;;;;;;;5091640;28;20207;-79
2023/07/11 02:55:11;;;;;;;5.80;5.30;;;;;;;;;;5092291;28;20204;-79
2023/07/11 02:57:40;;;;;;;6.20;5.60;;;;;;;;;;5075466;28;20265;-79
2023/07/11 03:00:09;;;;;;;8.33;4.97;;;;;;;;;;5094004;28;20224;-79
2023/07/11 03:02:37;;;;;;;5.47;4.97;;;;;;;;;;5093722;28;20290;-79
2023/07/11 03:05:06;;;;;;;5.00;4.57;;;;;;;;;;5093428;28;20207;-79
2023/07/11 03:07:33;;;;;;;5.83;4.77;;;;;;;;;;5107491;28;20276;-79
2023/07/11 03:10:00;;;;;;;5.20;4.80;;;;;;;;;;5112418;28;20227;-79
2023/07/11 03:12:27;;;;;;;8.07;5.53;;;;;;;;;;5076878;28;20265;-79
2023/07/11 03:14:54;;;;;;;5.43;5.00;;;;;;;;;;5110556;28;20673;-78
2023/07/11 03:17:21;;;;;;;5.17;4.67;;;;;;;;;;5064896;28;20233;-79
2023/07/11 03:19:48;;;;;;;4.67;4.37;;;;;;;;;;5076731;28;20195;-79
2023/07/11 03:22:18;;;;;;;7.10;4.80;;;;;;;;;;5093818;28;20243;-79
2023/07/11 03:24:46;;;;;;;6.13;5.53;;;;;;;;;;5078046;28;20231;-79
2023/07/11 03:27:13;;;;;;;5.60;4.97;;;;;;;;;;5080346;28;20234;-79
2023/07/11 03:29:40;;;;;;;5.80;5.27;;;;;;;;;;5073302;28;20214;-79
2023/07/11 03:32:10;;;;;;;5.13;4.63;;;;;;;;;;5086444;28;21767;-79
2023/07/11 03:34:37;;;;;;;5.93;5.43;;;;;;;;;;5083554;28;20211;-79
2023/07/11 03:37:05;;;;;;;5.40;4.90;;;;;;;;;;5073327;28;20196;-79
2023/07/11 03:39:33;;;;;;;7.13;5.67;;;;;;;;;;5105913;28;20630;-79
2023/07/11 03:42:16;;;;;;;9.30;5.10;;;;;;;;;;5101881;28;20211;-77
2023/07/11 03:44:44;;;;;;;12.03;5.17;;;;;;;;;;5092910;28;20693;-79
2023/07/11 03:47:11;;;;;;;5.77;5.27;;;;;;;;;;5092518;28;20230;-80
2023/07/11 03:49:39;;;;;;;5.43;5.03;;;;;;;;;;5050614;28;20303;-79
2023/07/11 03:52:06;;;;;;;5.87;4.83;;;;;;;;;;5062772;28;20202;-80
2023/07/11 03:54:35;;;;;;;7.17;5.57;;;;;;;;;;5049582;28;20209;-79
2023/07/11 03:57:02;;;;;;;5.63;5.13;;;;;;;;;;5061603;28;20271;-79
2023/07/11 03:59:30;;;;;;;5.40;4.90;;;;;;;;;;5051509;28;20289;-79
2023/07/11 04:01:58;;;;;;;7.00;5.43;;;;;;;;;;5062462;28;20201;-79
2023/07/11 04:04:24;;;;;;;5.73;5.17;;;;;;;;;;5062597;28;20208;-79
2023/07/11 04:06:52;;;;;;;4.63;4.30;;;;;;;;;;5059907;28;20524;-80
2023/07/11 04:09:19;;;;;;;5.33;4.83;;;;;;;;;;5053168;28;20591;-80
2023/07/11 04:11:49;;;;;;;5.40;4.50;;;;;;;;;;5060076;28;20201;-80
2023/07/11 04:14:16;;;;;;;5.80;5.30;;;;;;;;;;5053507;28;20693;-80
2023/07/11 04:16:43;;;;;;;6.23;5.60;;;;;;;;;;5049655;28;20216;-80
2023/07/11 04:19:11;;;;;;;5.07;4.50;;;;;;;;;;5050549;28;20202;-80
2023/07/11 04:21:37;;;;;;;4.93;4.23;;;;;;;;;;5050299;28;20229;-80
2023/07/11 04:24:05;;;;;;;7.03;5.13;;;;;;;;;;5049259;28;20206;-82
2023/07/11 04:26:32;;;;;;;7.83;4.60;;;;;;;;;;5049810;28;20263;-81
2023/07/11 04:29:01;;;;;;;5.47;5.03;;;;;;;;;;5051066;28;20206;-82
2023/07/11 04:31:28;;;;;;;8.30;5.13;;;;;;;;;;5050698;28;20206;-82
2023/07/11 04:33:55;;;;;;;6.87;4.67;;;;;;;;;;5053169;28;20205;-81
2023/07/11 04:36:22;;;;;;;8.40;5.53;;;;;;;;;;5068678;28;20599;-82
2023/07/11 04:38:49;;;;;;;6.13;5.53;;;;;;;;;;5056741;28;20247;-81
2023/07/11 04:41:16;;;;;;;6.17;4.53;;;;;;;;;;5058140;28;20205;-81
2023/07/11 04:43:43;;;;;;;5.40;4.47;;;;;;;;;;5062348;28;20209;-82
2023/07/11 04:46:11;;;;;;;6.03;5.33;;;;;;;;;;5050098;28;20202;-82
2023/07/11 04:48:38;;;;;;;5.73;5.10;;;;;;;;;;5064039;28;20240;-82
2023/07/11 04:51:07;;;;;;;5.63;5.10;;;;;;;;;;5102200;28;20199;-81
2023/07/11 04:53:34;;;;;;;5.40;4.77;;;;;;;;;;5089897;28;20201;-81
2023/07/11 04:56:05;;;;;;;6.10;5.10;;;;;;;;;;5089813;28;20215;-82
2023/07/11 04:58:33;;;;;;;5.50;4.90;;;;;;;;;;5097023;28;20211;-81
2023/07/11 05:01:01;;;;;;;5.30;4.80;;;;;;;;;;5108916;28;20206;-81
2023/07/11 05:03:30;;;;;;;7.47;5.13;;;;;;;;;;5090593;28;20220;-82
2023/07/11 05:05:57;;;;;;;5.57;4.97;;;;;;;;;;5092876;28;20215;-82
2023/07/11 05:08:24;;;;;;;6.40;4.73;;;;;;;;;;5094179;28;20227;-82
2023/07/11 05:10:54;;;;;;;5.87;4.60;;;;;;;;;;5107733;28;20200;-82
2023/07/11 05:13:21;;;;;;;8.40;5.60;;;;;;;;;;5102471;28;20196;-82
2023/07/11 05:15:48;;;;;;;5.10;4.60;;;;;;;;;;5111765;28;20203;-82
2023/07/11 05:18:14;;;;;;;6.17;5.50;;;;;;;;;;5102924;28;20203;-82
2023/07/11 05:20:43;;;;;;;9.33;5.37;;;;;;;;;;5111254;28;20204;-82
2023/07/11 05:23:09;;;;;;;5.63;5.20;;;;;;;;;;5103377;28;20200;-82
2023/07/11 05:25:38;;;;;;;6.03;5.40;;;;;;;;;;5110872;28;20200;-82
2023/07/11 05:28:05;;;;;;;8.70;5.50;;;;;;;;;;5093759;28;20665;-82
2023/07/11 05:30:32;;;;;;;7.90;4.67;;;;;;;;;;5094155;28;20204;-82
2023/07/11 05:32:58;;;;;;;8.47;5.33;;;;;;;;;;5093548;28;20204;-82
2023/07/11 05:35:25;;;;;;;6.37;4.60;;;;;;;;;;5106968;28;20203;-82
2023/07/11 05:37:53;;;;;;;5.77;5.03;;;;;;;;;;5104195;28;20285;-81
2023/07/11 05:40:20;;;;;;;7.80;5.20;;;;;;;;;;5100092;28;20688;-82
2023/07/11 05:42:47;;;;;;;6.33;5.10;;;;;;;;;;5102593;28;20697;-82
2023/07/11 05:45:14;;;;;;;5.43;4.93;;;;;;;;;;5106843;28;20269;-82
2023/07/11 05:47:40;;;;;;;6.97;4.77;;;;;;;;;;5093675;28;20227;-82
2023/07/11 05:50:09;;;;;;;6.07;5.47;;;;;;;;;;5093610;28;20231;-81
2023/07/11 05:52:36;;;;;;;6.37;5.00;;;;;;;;;;5104998;28;20211;-81
2023/07/11 05:55:04;;;;;;;4.87;4.47;;;;;;;;;;5108656;28;20196;-81
2023/07/11 05:57:31;;;;;;;5.53;4.60;;;;;;;;;;5105556;28;20211;-81
2023/07/11 05:59:58;;;;;;;8.67;4.67;;;;;;;;;;5099810;28;20265;-81
2023/07/11 06:02:25;;;;;;;5.20;4.70;;;;;;;;;;5100558;28;20216;-82
2023/07/11 06:04:51;;;;;;;7.40;5.77;;;;;;;;;;5106726;28;20196;-82
2023/07/11 06:07:18;;;;;;;5.27;4.70;;;;;;;;;;5105576;28;20219;-82
2023/07/11 06:09:45;;;;;;;7.03;4.60;;;;;;;;;;5107344;28;20200;-82
2023/07/11 06:12:14;;;;;;;12.37;4.70;;;;;;;;;;5092567;28;20200;-82
2023/07/11 06:14:41;;;;;;;7.90;5.47;;;;;;;;;;5113149;28;20200;-82
2023/07/11 06:17:09;;;;;;;8.20;5.30;;;;;;;;;;5112194;28;20241;-83
2023/07/11 06:19:36;;;;;;;6.23;4.80;;;;;;;;;;5112988;28;20207;-82
2023/07/11 06:22:03;;;;;;;6.30;5.23;;;;;;;;;;5098325;28;20211;-82
2023/07/11 06:24:29;;;;;;;8.13;4.87;;;;;;;;;;5092746;28;20560;-82
2023/07/11 06:26:56;;;;;;;9.53;5.97;;;;;;;;;;5093128;28;20197;-82
2023/07/11 06:29:24;;;;;;;7.23;5.10;;;;;;;;;;5112678;28;20200;-82
2023/07/11 06:31:51;;;;;;;4.93;4.43;;;;;;;;;;5111899;28;20199;-82
2023/07/11 06:34:18;;;;;;;6.03;5.13;;;;;;;;;;5099945;28;20195;-82
2023/07/11 06:36:45;;;;;;;5.88;4.72;;;;;;;;;;5111542;28;20201;-82
2023/07/11 06:39:11;;;;;;;5.72;5.22;;;;;;;;;;5100465;28;20196;-82
2023/07/11 06:41:38;;;;;;;7.53;5.25;;;;;;;;;;5098157;28;20272;-81
2023/07/11 06:44:06;;;;;;;4.93;4.53;;;;;;;;;;5100255;28;20203;-82
2023/07/11 06:46:35;;;;;;;6.63;4.93;;;;;;;;;;5112838;28;20555;-82
2023/07/11 06:49:01;;;;;;;6.43;4.57;;;;;;;;;;5103455;28;20327;-82
2023/07/11 06:51:29;;;;;;;5.38;4.90;;;;;;;;;;5092039;28;20207;-81
2023/07/11 06:53:56;;;;;;;6.15;4.43;;;;;;;;;;5101427;28;20257;-82
2023/07/11 06:56:24;;;;;;;7.20;4.55;;;;;;;;;;5098672;28;20642;-82
2023/07/11 06:58:50;;;;;;;7.63;5.13;;;;;;;;;;5102685;28;20674;-82
2023/07/11 07:01:21;;;;;;;5.13;4.68;;;;;;;;;;5094529;28;20684;-82
2023/07/11 07:03:50;;;;;;;12.18;8.73;;;;;;;;;;5101620;28;20208;-82
2023/07/11 07:06:19;;;;;;;5.90;5.40;;;;;;;;;;5095978;28;20227;-82
2023/07/11 07:08:46;;;;;;;7.88;5.57;;;;;;;;;;5100564;28;20285;-82
2023/07/11 07:11:16;;;;;;;5.40;5.00;;;;;;;;;;5109633;28;20203;-82
2023/07/11 07:13:43;;;;;;;6.78;5.40;;;;;;;;;;5111978;28;20211;-82
2023/07/11 07:16:10;;;;;;;10.20;8.82;;;;;;;;;;5112079;28;20207;-82
2023/07/11 07:18:39;;;;;;;9.85;6.85;;;;;;;;;;5111953;28;20685;-82
2023/07/11 07:21:09;;;;;;;9.85;7.00;;;;;;;;;;5098258;28;20223;-82
2023/07/11 07:23:36;;;;;;;10.23;6.53;;;;;;;;;;5098272;28;20287;-82
2023/07/11 07:26:04;;;;;;;12.18;6.15;;;;;;;;;;5091365;28;20192;-82
2023/07/11 07:28:32;;;;;;;7.15;5.50;;;;;;;;;;5103770;28;20229;-82
2023/07/11 07:30:59;;;;;;;6.82;6.13;;;;;;;;;;5111702;28;20195;-82
2023/07/11 07:33:27;;;;;;;6.38;5.78;;;;;;;;;;5111152;28;20585;-82
2023/07/11 07:35:56;;;;;;;7.22;6.55;;;;;;;;;;5091246;28;20613;-82
2023/07/11 07:38:27;;;;;;;6.40;5.05;;;;;;;;;;5104918;28;20204;-82
2023/07/11 07:40:55;;;;;;;13.40;4.93;;;;;;;;;;5100105;28;20204;-81
2023/07/11 07:43:23;;;;;;;6.45;5.40;;;;;;;;;;5097437;28;20197;-82
2023/07/11 07:45:50;;;;;;;7.68;5.32;;;;;;;;;;5102221;28;20571;-82
2023/07/11 07:48:17;;;;;;;7.60;4.68;;;;;;;;;;5107272;28;20227;-82
2023/07/11 07:50:44;;;;;;;5.03;4.60;;;;;;;;;;5111287;28;20223;-82
2023/07/11 07:53:15;;;;;;;6.13;5.28;;;;;;;;;;5094953;28;20337;-82
2023/07/11 07:55:45;;;;;;;4.93;4.47;;;;;;;;;;5101484;28;20633;-82
2023/07/11 07:58:13;;;;;;;5.70;5.00;;;;;;;;;;5097785;28;20195;-82
2023/07/11 08:00:40;;;;;;;9.30;5.18;;;;;;;;;;5100665;28;20254;-82
2023/07/11 08:03:07;;;;;;;7.68;4.68;;;;;;;;;;5108516;28;20200;-83
2023/07/11 08:05:35;;;;;;;5.88;4.93;;;;;;;;;;5111131;28;20203;-82
2023/07/11 08:08:02;;;;;;;5.65;4.80;;;;;;;;;;5111042;28;20219;-82
2023/07/11 08:10:28;;;;;;;10.68;5.32;;;;;;;;;;5099412;28;20211;-82
2023/07/11 08:12:56;;;;;;;8.15;5.80;;;;;;;;;;5095357;28;20738;-82
2023/07/11 08:15:23;;;;;;;4.53;4.13;;;;;;;;;;5099178;28;20200;-82
2023/07/11 08:17:50;;;;;;;6.00;4.82;;;;;;;;;;5096207;28;20222;-82
2023/07/11 08:20:17;;;;;;;5.22;4.82;;;;;;;;;;5110928;28;20267;-82
2023/07/11 08:22:44;;;;;;;15.05;5.18;;;;;;;;;;5111038;28;20200;-82
2023/07/11 08:25:11;;;;;;;5.35;4.80;;;;;;;;;;5098474;28;20209;-82
2023/07/11 08:27:38;;;;;;;4.88;4.47;;;;;;;;;;5103882;28;20204;-82
2023/07/11 08:30:08;;;;;;;6.07;4.85;;;;;;;;;;5103423;28;20210;-82
2023/07/11 08:32:35;;;;;;;6.53;5.90;;;;;;;;;;5090609;28;20200;-82
2023/07/11 08:35:01;;;;;;;5.95;4.72;;;;;;;;;;5104293;28;20290;-81
2023/07/11 08:37:29;;;;;;;5.53;5.03;;;;;;;;;;5090568;28;20242;-81
2023/07/11 08:39:56;;;;;;;7.45;4.78;;;;;;;;;;5091961;28;20200;-82
2023/07/11 08:42:28;;;;;;;5.03;4.40;;;;;;;;;;5094472;28;20256;-82
2023/07/11 08:45:00;;;;;;;7.47;4.75;;;;;;;;;;5109651;28;20212;-81
2023/07/11 08:47:31;;;;;;;6.90;4.55;;;;;;;;;;5114853;28;20192;-81
2023/07/11 08:50:01;;;;;;;8.50;5.22;;;;;;;;;;5098247;28;20232;-82
2023/07/11 08:52:29;;;;;;;6.22;4.90;;;;;;;;;;5104867;28;20235;-81
2023/07/11 08:55:00;;;;;;;9.25;5.90;;;;;;;;;;5114732;28;20196;-82
2023/07/11 08:57:30;;;;;;;5.60;5.10;;;;;;;;;;5102613;28;20200;-82
2023/07/11 09:00:02;;;;;;;4.97;4.57;;;;;;;;;;5094258;28;20685;-82
2023/07/11 09:02:39;;;;;;;6.07;4.70;;;;;;;;;;5107754;28;20295;-81
2023/07/11 09:05:12;;;;;;;5.03;4.63;;;;;;;;;;5094220;28;20200;-82
2023/07/11 09:07:42;;;;;;;5.18;4.78;;;;;;;;;;5108003;28;20204;-82
2023/07/11 09:10:25;;;;;;;6.47;4.60;;;;;;;;;;5094065;28;20201;-82
2023/07/11 09:12:58;;;;;;;5.80;4.90;;;;;;;;;;5107629;28;20207;-82
2023/07/11 09:15:29;;;;;;;8.02;5.57;;;;;;;;;;5107044;28;20631;-82
2023/07/11 09:18:01;;;;;;;6.57;4.97;;;;;;;;;;5093781;28;20254;-82
2023/07/11 09:20:39;;;;;;;5.57;5.07;;;;;;;;;;5107658;28;20203;-81
2023/07/11 09:23:16;;;;;;;5.93;5.30;;;;;;;;;;5102669;28;20210;-81
2023/07/11 09:25:45;;;;;;;5.43;4.95;;;;;;;;;;5113667;28;20195;-82
2023/07/11 09:28:14;;;;;;;14.13;5.15;;;;;;;;;;5103034;28;20230;-82
2023/07/11 09:30:46;;;;;;;6.05;5.47;;;;;;;;;;5098069;28;20199;-81
2023/07/11 09:33:16;;;;;;;6.13;5.43;;;;;;;;;;5101829;28;20200;-81
2023/07/11 09:35:44;;;;;;;8.73;5.78;;;;;;;;;;5098918;28;20669;-81
2023/07/11 09:38:15;;;;;;;5.68;5.20;;;;;;;;;;5113784;28;20200;-82
2023/07/11 09:40:45;;;;;;;5.07;4.65;;;;;;;;;;5113820;28;20200;-82
2023/07/11 09:43:15;;;;;;;6.75;6.03;;;;;;;;;;5099845;28;20200;-81
2023/07/11 09:45:44;;;;;;;5.65;4.78;;;;;;;;;;5113803;28;20196;-81
2023/07/11 09:48:15;;;;;;;5.53;5.05;;;;;;;;;;5113145;28;20213;-82
2023/07/11 09:50:49;;;;;;;5.30;4.90;;;;;;;;;;5113528;28;20636;-81
2023/07/11 09:53:19;;;;;;;5.47;4.95;;;;;;;;;;5099532;28;20207;-81
2023/07/11 09:55:46;;;;;;;6.07;5.47;;;;;;;;;;5102870;28;20204;-82
2023/07/11 09:58:16;;;;;;;6.35;4.95;;;;;;;;;;5111068;28;20204;-81
2023/07/11 10:00:47;;;;;;;6.95;5.32;;;;;;;;;;5113486;28;20212;-81
2023/07/11 10:03:20;;;;;;;5.35;4.95;;;;;;;;;;5107190;28;20201;-82
2023/07/11 10:05:49;;;;;;;5.25;4.75;;;;;;;;;;5106407;28;20245;-81
2023/07/11 10:08:20;;;;;;;5.18;4.78;;;;;;;;;;5092878;28;20196;-81
2023/07/11 10:10:48;;;;;;;5.32;4.85;;;;;;;;;;5106559;28;20678;-82
2023/07/11 10:13:16;;;;;;;9.70;5.43;;;;;;;;;;5092707;28;20618;-81
2023/07/11 10:15:44;;;;;;;6.03;5.63;;;;;;;;;;5106404;28;20651;-82
2023/07/11 10:18:19;;;;;;;5.63;5.13;;;;;;;;;;5101310;28;20551;-82
2023/07/11 10:20:47;;;;;;;8.57;5.13;;;;;;;;;;5096299;28;20706;-81
2023/07/11 10:23:15;;;;;;;6.20;5.28;;;;;;;;;;5102364;28;20199;-82
2023/07/11 10:25:44;;;;;;;13.73;5.47;;;;;;;;;;5096070;28;20200;-82
2023/07/11 10:28:21;;;;;;;6.25;5.10;;;;;;;;;;5092831;28;20208;-81
2023/07/11 10:30:49;;;;;;;5.70;5.20;;;;;;;;;;5098396;28;20199;-82
2023/07/11 10:33:24;;;;;;;5.60;5.10;;;;;;;;;;5112536;28;20666;-82
2023/07/11 10:35:55;;;;;;;5.82;5.28;;;;;;;;;;5092688;28;20208;-82
2023/07/11 10:38:26;;;;;;;5.55;5.05;;;;;;;;;;5092273;28;20250;-81
2023/07/11 10:40:56;;;;;;;6.53;4.75;;;;;;;;;;5101431;28;20200;-82
2023/07/11 10:43:25;;;;;;;6.35;5.18;;;;;;;;;;5098895;28;20213;-82
2023/07/11 10:45:55;;;;;;;6.32;5.57;;;;;;;;;;5103603;28;20201;-81
2023/07/11 10:48:30;;;;;;;7.30;4.60;;;;;;;;;;5092060;28;20608;-82
2023/07/11 10:51:00;;;;;;;5.80;5.18;;;;;;;;;;5085616;28;20223;-82
2023/07/11 10:53:30;;;;;;;7.82;5.38;;;;;;;;;;5098604;28;20670;-82
2023/07/11 10:56:04;;;;;;;9.50;5.25;;;;;;;;;;5099723;28;20268;-81
2023/07/11 10:58:32;;;;;;;7.13;5.20;;;;;;;;;;5099153;28;20210;-81
2023/07/11 11:01:06;;;;;;;5.45;5.03;;;;;;;;;;5111239;28;20682;-81
2023/07/11 11:03:39;;;;;;;4.90;4.40;;;;;;;;;;5100170;28;20559;-82
2023/07/11 11:06:32;;;;;;;5.63;5.13;;;;;;;;;;5096055;28;20200;-81
2023/07/11 11:09:07;;;;;;;6.57;5.60;;;;;;;;;;5101497;28;20226;-82
2023/07/11 11:11:42;;;;;;;7.50;5.30;;;;;;;;;;5104734;28;20230;-82
2023/07/11 11:14:15;;;;;;;5.88;5.30;;;;;;;;;;5104943;28;20199;-82
2023/07/11 11:16:49;;;;;;;10.70;6.30;;;;;;;;;;5101579;28;20754;-82
2023/07/11 11:19:22;;;;;;;6.97;5.72;;;;;;;;;;5093807;28;20200;-82
2023/07/11 11:21:53;;;;;;;6.75;5.43;;;;;;;;;;5091625;28;20200;-82
2023/07/11 11:24:37;;;;;;;6.25;5.72;;;;;;;;;;5098070;28;20206;-81
2023/07/11 11:27:10;;;;;;;8.40;4.90;;;;;;;;;;5095990;28;20204;-82
2023/07/11 11:29:45;;;;;;;5.43;5.00;;;;;;;;;;5100267;28;20227;-82
2023/07/11 11:32:20;;;;;;;5.93;5.32;;;;;;;;;;5097667;28;20634;-81
2023/07/11 11:35:12;;;;;;;5.95;5.35;;;;;;;;;;5100030;28;20203;-81
2023/07/11 11:37:45;;;;;;;5.95;5.30;;;;;;;;;;5099657;28;20578;-81
2023/07/11 11:40:14;;;;;;;6.72;5.40;;;;;;;;;;5098031;28;20204;-82
2023/07/11 11:42:43;;;;;;;8.13;5.70;;;;;;;;;;5101822;28;20200;-81
2023/07/11 11:45:15;;;;;;;7.40;5.20;;;;;;;;;;5105082;28;20200;-82
2023/07/11 11:47:43;;;;;;;6.30;5.32;;;;;;;;;;5090858;28;20690;-82
2023/07/11 11:50:15;;;;;;;10.98;5.85;;;;;;;;;;5095696;28;20287;-81
2023/07/11 11:52:44;;;;;;;10.75;6.05;;;;;;;;;;5111736;28;20199;-81
2023/07/11 11:55:24;;;;;;;5.97;5.38;;;;;;;;;;5110975;28;20754;-81
2023/07/11 11:57:51;;;;;;;7.30;5.63;;;;;;;;;;5110654;28;20203;-81
2023/07/11 12:00:33;;;;;;;5.90;5.40;;;;;;;;;;5111315;28;20575;-82
2023/07/11 12:03:00;;;;;;;6.20;5.60;;;;;;;;;;5097395;28;20696;-82
2023/07/11 12:05:28;;;;;;;7.20;5.68;;;;;;;;;;5111213;28;20214;-81
2023/07/11 12:08:21;;;;;;;6.15;5.50;;;;;;;;;;5106791;28;20200;-81
2023/07/11 12:11:02;;;;;;;6.82;5.15;;;;;;;;;;5104326;28;20230;-82
2023/07/11 12:13:30;;;;;;;5.90;5.40;;;;;;;;;;5090670;28;20717;-81
2023/07/11 12:15:58;;;;;;;6.85;5.18;;;;;;;;;;5104043;28;20200;-81
2023/07/11 12:18:34;;;;;;;8.25;5.60;;;;;;;;;;5090500;28;20204;-81
2023/07/11 12:21:32;;;;;;;8.32;6.60;;;;;;;;;;5103949;28;20207;-81
2023/07/11 12:24:19;;;;;;;14.02;6.07;;;;;;;;;;5094643;28;20227;-82
2023/07/11 12:26:45;;;;;;;5.65;5.15;;;;;;;;;;5097242;28;20218;-81
2023/07/11 12:29:49;;;;;;;7.07;5.70;;;;;;;;;;5096486;28;20235;-81
2023/07/11 12:32:41;;;;;;;6.38;5.65;;;;;;;;;;5028271;28;20206;-81
2023/07/11 12:35:14;;;;;;;6.32;5.72;;;;;;;;;;5028240;28;20245;-82
2023/07/11 12:37:48;;;;;;;7.57;5.78;;;;;;;;;;5076133;28;20207;-81
2023/07/11 12:40:17;;;;;;;6.97;5.70;;;;;;;;;;5090828;28;20200;-81
2023/07/11 12:42:51;;;;;;;10.32;6.03;;;;;;;;;;5101487;28;20206;-81
2023/07/11 12:45:20;;;;;;;6.32;5.72;;;;;;;;;;5110217;28;20742;-81
2023/07/11 12:47:50;;;;;;;6.20;5.53;;;;;;;;;;5111048;28;20290;-81
2023/07/11 12:50:24;;;;;;;5.68;5.03;;;;;;;;;;5091316;28;20232;-81
2023/07/11 12:53:00;;;;;;;6.22;5.63;;;;;;;;;;5090487;28;20196;-82
2023/07/11 12:55:27;;;;;;;6.03;5.53;;;;;;;;;;5110438;28;20207;-81
2023/07/11 12:57:53;;;;;;;8.07;6.38;;;;;;;;;;5110690;28;20208;-81
2023/07/11 13:00:22;;;;;;;7.65;5.80;;;;;;;;;;5110948;28;20207;-81
2023/07/11 13:02:51;;;;;;;6.00;5.20;;;;;;;;;;5110597;28;20207;-80
2023/07/11 13:05:18;;;;;;;7.90;6.35;;;;;;;;;;5101160;28;20212;-81
2023/07/11 13:07:45;;;;;;;10.10;6.20;;;;;;;;;;5106373;28;20196;-81
2023/07/11 13:10:21;;;;;;;5.70;5.18;;;;;;;;;;5110584;28;20227;-81
2023/07/11 13:12:48;;;;;;;10.02;5.38;;;;;;;;;;5096878;28;20188;-81
2023/07/11 13:15:17;;;;;;;6.85;5.57;;;;;;;;;;5110454;28;20208;-82
2023/07/11 13:17:45;;;;;;;6.25;5.57;;;;;;;;;;5105011;28;20197;-82
2023/07/11 13:20:19;;;;;;;7.78;5.95;;;;;;;;;;5090457;28;20208;-81
2023/07/11 13:22:46;;;;;;;18.30;5.80;;;;;;;;;;5097088;28;20203;-81
2023/07/11 13:25:15;;;;;;;8.45;5.93;;;;;;;;;;5110045;28;20215;-81
2023/07/11 13:27:46;;;;;;;5.80;5.22;;;;;;;;;;5092069;28;20196;-80
2023/07/11 13:30:21;;;;;;;6.50;5.43;;;;;;;;;;5107416;28;20318;-82
2023/07/11 13:32:53;;;;;;;6.55;5.95;;;;;;;;;;5113758;28;20207;-81
2023/07/11 13:35:20;;;;;;;9.35;5.97;;;;;;;;;;5098158;28;20228;-81
2023/07/11 13:37:48;;;;;;;6.40;5.80;;;;;;;;;;5102699;28;20701;-81
2023/07/11 13:40:35;;;;;;;6.55;5.80;;;;;;;;;;5111240;28;20693;-81
2023/07/11 13:43:10;;;;;;;8.30;5.68;;;;;;;;;;5105672;28;20204;-81
2023/07/11 13:45:37;;;;;;;6.30;5.63;;;;;;;;;;5093767;28;20203;-81
2023/07/11 13:48:15;;;;;;;7.00;6.30;;;;;;;;;;5093390;28;20659;-82
2023/07/11 13:50:45;;;;;;;6.22;5.63;;;;;;;;;;5113737;28;20709;-81
2023/07/11 13:53:16;;;;;;;5.68;5.15;;;;;;;;;;5110353;28;20618;-81
2023/07/11 13:55:50;;;;;;;6.57;5.60;;;;;;;;;;5103472;28;20256;-81
2023/07/11 13:58:18;;;;;;;5.60;5.10;;;;;;;;;;5099866;28;20279;-81
2023/07/11 14:00:47;;;;;;;6.53;5.95;;;;;;;;;;5101803;28;20285;-81
2023/07/11 14:03:16;;;;;;;6.47;5.40;;;;;;;;;;5098153;28;20199;-81
2023/07/11 14:05:46;;;;;;;7.47;5.65;;;;;;;;;;5100632;28;20212;-81
2023/07/11 14:08:13;;;;;;;6.30;5.68;;;;;;;;;;5099568;28;20226;-81
2023/07/11 14:10:40;;;;;;;8.43;6.30;;;;;;;;;;5099884;28;20228;-81
2023/07/11 14:13:15;;;;;;;8.98;6.13;;;;;;;;;;5099460;28;20586;-81
2023/07/11 14:15:43;;;;;;;6.53;6.00;;;;;;;;;;5112869;28;20268;-81
2023/07/11 14:18:12;;;;;;;7.45;6.75;;;;;;;;;;5104537;28;20269;-81
2023/07/11 14:20:39;;;;;;;6.45;5.75;;;;;;;;;;5106255;28;20199;-81
2023/07/11 14:23:15;;;;;;;7.40;6.60;;;;;;;;;;5092920;28;20223;-81
2023/07/11 14:25:42;;;;;;;6.43;5.80;;;;;;;;;;5106252;28;20585;-81
2023/07/11 14:28:13;;;;;;;7.07;6.13;;;;;;;;;;5102956;28;20291;-81
2023/07/11 14:30:40;;;;;;;9.77;6.90;;;;;;;;;;5109084;28;20666;-81
2023/07/11 14:33:11;;;;;;;6.45;5.35;;;;;;;;;;5092690;28;20196;-82
2023/07/11 14:35:38;;;;;;;6.35;5.85;;;;;;;;;;5097270;28;20704;-81
2023/07/11 14:38:05;;;;;;;6.40;5.60;;;;;;;;;;5111932;28;20195;-80
2023/07/11 14:40:32;;;;;;;11.13;5.70;;;;;;;;;;5112837;28;20199;-81
2023/07/11 14:42:59;;;;;;;5.30;4.63;;;;;;;;;;5103060;28;20283;-82
2023/07/11 14:45:27;;;;;;;5.82;5.22;;;;;;;;;;5109752;28;20697;-81
2023/07/11 14:47:54;;;;;;;5.82;5.32;;;;;;;;;;5100984;28;20215;-81
2023/07/11 14:50:26;;;;;;;5.45;4.93;;;;;;;;;;5098975;28;20250;-81
2023/07/11 14:52:53;;;;;;;9.05;5.03;;;;;;;;;;5094603;28;20203;-81
2023/07/11 14:55:22;;;;;;;5.93;5.00;;;;;;;;;;5105085;28;20208;-81
2023/07/11 14:57:51;;;;;;;5.20;4.80;;;;;;;;;;5088412;28;20210;-81